Time;durP1;ratioP1;P1;durP2;ratioP2;P2;SDS_P1;SDS_P2;PMS_P1;PMS_P2;Temp;Humidity;BMP_temperature;BMP_pressure;BME280_temperature;BME280_humidity;BME280_pressure;Samples;Min_cycle;Max_cycle;Signal;HPM_P1;HPM_P2
2023/03/15 00:01:17;;;;;;;62.50;39.70;;;;;;;;;;10189403;28;20140;-70
2023/03/15 00:06:18;;;;;;;54.05;37.05;;;;;;;;;;10188224;28;20063;-70
2023/03/15 00:11:11;;;;;;;34.42;23.48;;;;;;;;;;10188206;28;20048;-70
2023/03/15 00:16:06;;;;;;;24.88;21.63;;;;;;;;;;10187993;28;20090;-70
2023/03/15 00:20:59;;;;;;;23.42;19.75;;;;;;;;;;10187960;28;20058;-70
2023/03/15 00:25:53;;;;;;;23.08;19.65;;;;;;;;;;10187739;28;20576;-70
2023/03/15 00:30:46;;;;;;;23.40;19.52;;;;;;;;;;10183825;28;20094;-70
2023/03/15 00:35:40;;;;;;;19.88;15.85;;;;;;;;;;10187460;28;20043;-70
2023/03/15 00:40:33;;;;;;;17.85;13.70;;;;;;;;;;10186131;28;20478;-70
2023/03/15 00:45:27;;;;;;;15.93;13.55;;;;;;;;;;10177662;28;20056;-70
2023/03/15 00:50:21;;;;;;;19.52;13.77;;;;;;;;;;10186534;28;20044;-70
2023/03/15 00:55:18;;;;;;;16.63;12.68;;;;;;;;;;10186633;28;20036;-70
2023/03/15 01:00:23;;;;;;;14.50;10.52;;;;;;;;;;10182437;28;20056;-70
2023/03/15 01:05:17;;;;;;;10.88;9.75;;;;;;;;;;10201456;28;20040;-70
2023/03/15 01:10:12;;;;;;;13.18;9.45;;;;;;;;;;10179174;28;20527;-70
2023/03/15 01:15:08;;;;;;;14.75;9.52;;;;;;;;;;10176086;28;20090;-71
2023/03/15 01:20:04;;;;;;;10.57;7.95;;;;;;;;;;10163162;28;20139;-70
2023/03/15 01:24:59;;;;;;;12.00;7.70;;;;;;;;;;10171437;28;20049;-70
2023/03/15 01:29:53;;;;;;;9.00;7.32;;;;;;;;;;10174266;28;20075;-70
2023/03/15 01:34:47;;;;;;;6.60;5.90;;;;;;;;;;10169485;28;20064;-70
2023/03/15 01:39:41;;;;;;;5.88;5.30;;;;;;;;;;10185094;28;20463;-70
2023/03/15 01:45:24;;;;;;;7.28;5.20;;;;;;;;;;10177722;28;20044;-70
2023/03/15 01:50:17;;;;;;;11.35;5.80;;;;;;;;;;10170135;28;20062;-70
2023/03/15 01:55:16;;;;;;;7.10;5.43;;;;;;;;;;10178730;28;20134;-70
2023/03/15 02:00:20;;;;;;;7.93;5.90;;;;;;;;;;10184233;28;20629;-70
2023/03/15 02:05:23;;;;;;;6.20;5.00;;;;;;;;;;10174101;28;20129;-70
2023/03/15 02:10:19;;;;;;;5.05;4.55;;;;;;;;;;10172401;28;20044;-70
2023/03/15 02:15:14;;;;;;;13.88;4.72;;;;;;;;;;10179767;28;20048;-70
2023/03/15 02:20:30;;;;;;;5.75;4.43;;;;;;;;;;10183675;28;20435;-71
2023/03/15 02:25:41;;;;;;;7.60;6.03;;;;;;;;;;10191766;28;20483;-71
2023/03/15 02:30:34;;;;;;;6.60;4.40;;;;;;;;;;10192630;28;20127;-71
2023/03/15 02:35:31;;;;;;;5.97;4.60;;;;;;;;;;10173997;28;20165;-71
2023/03/15 02:40:27;;;;;;;5.25;4.18;;;;;;;;;;10205280;27;20129;-71
2023/03/15 02:45:20;;;;;;;5.60;4.97;;;;;;;;;;10191079;28;20135;-71
2023/03/15 02:50:15;;;;;;;4.60;3.90;;;;;;;;;;10191917;28;20564;-71
2023/03/15 02:55:10;;;;;;;8.18;4.43;;;;;;;;;;10191406;28;20074;-70
2023/03/15 03:00:10;;;;;;;4.25;3.55;;;;;;;;;;10205990;28;20048;-73
2023/03/15 03:05:06;;;;;;;5.43;3.70;;;;;;;;;;10189017;28;20048;-71
2023/03/15 03:09:59;;;;;;;5.10;3.55;;;;;;;;;;10168917;28;20059;-71
2023/03/15 03:14:56;;;;;;;4.88;3.35;;;;;;;;;;10188040;28;20101;-71
2023/03/15 03:19:51;;;;;;;4.95;3.13;;;;;;;;;;10182152;28;20500;-71
2023/03/15 03:24:51;;;;;;;6.32;3.30;;;;;;;;;;10175779;28;20123;-71
2023/03/15 03:29:44;;;;;;;3.42;3.10;;;;;;;;;;10190084;28;20075;-71
2023/03/15 03:34:38;;;;;;;3.38;3.08;;;;;;;;;;10185571;28;20416;-72
2023/03/15 03:39:31;;;;;;;4.68;4.15;;;;;;;;;;10170829;28;20105;-73
2023/03/15 03:44:26;;;;;;;4.95;4.18;;;;;;;;;;10127106;28;20118;-72
2023/03/15 03:49:19;;;;;;;7.32;4.38;;;;;;;;;;10107279;28;20057;-73
2023/03/15 03:54:13;;;;;;;7.45;4.82;;;;;;;;;;10107409;28;20104;-72
2023/03/15 03:59:09;;;;;;;7.88;4.93;;;;;;;;;;10097217;28;20079;-71
2023/03/15 04:04:13;;;;;;;6.63;4.50;;;;;;;;;;10107247;28;20516;-72
2023/03/15 04:09:10;;;;;;;7.03;4.80;;;;;;;;;;10105876;28;20051;-72
2023/03/15 04:14:05;;;;;;;9.30;5.63;;;;;;;;;;10105776;28;20420;-71
2023/03/15 04:18:58;;;;;;;9.02;5.95;;;;;;;;;;10106297;28;20053;-71
2023/03/15 04:23:55;;;;;;;5.78;5.20;;;;;;;;;;10106219;28;20043;-71
2023/03/15 04:29:03;;;;;;;6.57;4.88;;;;;;;;;;10105989;28;20140;-71
2023/03/15 04:34:14;;;;;;;7.47;4.82;;;;;;;;;;10107304;28;20076;-71
2023/03/15 04:39:25;;;;;;;7.05;5.35;;;;;;;;;;10093489;28;20069;-71
2023/03/15 04:44:45;;;;;;;;;;;;;;;;;;10123843;28;20182;-70
2023/03/15 04:50:03;;;;;;;6.50;5.47;;;;;;;;;;10167030;28;19928;-72
2023/03/15 04:55:10;;;;;;;6.10;5.38;;;;;;;;;;10165486;28;20066;-72
2023/03/15 05:00:21;;;;;;;7.45;5.63;;;;;;;;;;10174047;28;20097;-71
2023/03/15 05:05:33;;;;;;;8.10;5.88;;;;;;;;;;10165071;28;20055;-72
2023/03/15 05:10:47;;;;;;;5.53;4.68;;;;;;;;;;10170654;28;20496;-72
2023/03/15 05:16:03;;;;;;;6.15;5.50;;;;;;;;;;10171843;28;20052;-69
2023/03/15 05:21:06;;;;;;;10.80;4.68;;;;;;;;;;10157869;28;20040;-69
2023/03/15 05:26:19;;;;;;;5.70;3.70;;;;;;;;;;10149616;28;20056;-70
2023/03/15 05:31:24;;;;;;;3.55;3.00;;;;;;;;;;10166541;28;20510;-70
2023/03/15 05:36:34;;;;;;;2.97;2.33;;;;;;;;;;10178735;28;20115;-69
2023/03/15 05:41:46;;;;;;;2.70;1.80;;;;;;;;;;10170359;28;20397;-70
2023/03/15 05:47:16;;;;;;;2.25;1.40;;;;;;;;;;10144177;28;20385;-69
2023/03/15 05:52:35;;;;;;;3.33;1.20;;;;;;;;;;10143242;28;20052;-70
2023/03/15 05:57:38;;;;;;;2.17;1.15;;;;;;;;;;10153473;28;20040;-69
2023/03/15 06:03:04;;;;;;;1.02;1.00;;;;;;;;;;10019069;28;20127;-69
2023/03/15 06:08:06;;;;;;;1.35;0.80;;;;;;;;;;10172263;28;20377;-70
2023/03/15 06:13:04;;;;;;;1.67;1.20;;;;;;;;;;10156356;28;20101;-69
2023/03/15 06:17:57;;;;;;;0.80;0.80;;;;;;;;;;10156481;28;20557;-72
2023/03/15 06:22:51;;;;;;;0.93;0.93;;;;;;;;;;10167517;28;20058;-70
2023/03/15 06:27:55;;;;;;;0.70;0.70;;;;;;;;;;10153283;28;20040;-70
2023/03/15 06:32:49;;;;;;;0.80;0.80;;;;;;;;;;10171162;28;20841;-69
2023/03/15 06:37:43;;;;;;;1.15;1.05;;;;;;;;;;10169795;28;20508;-67
2023/03/15 06:42:37;;;;;;;0.80;0.80;;;;;;;;;;10165355;28;20052;-66
2023/03/15 06:47:31;;;;;;;0.98;0.98;;;;;;;;;;10172025;28;20044;-66
2023/03/15 06:52:28;;;;;;;0.80;0.80;;;;;;;;;;10167267;28;20052;-65
2023/03/15 06:57:22;;;;;;;6.10;1.30;;;;;;;;;;10188076;28;20036;-66
2023/03/15 07:02:17;;;;;;;1.13;0.93;;;;;;;;;;10191372;28;20044;-66
2023/03/15 07:07:10;;;;;;;2.45;1.50;;;;;;;;;;10191086;28;20419;-66
2023/03/15 07:12:05;;;;;;;0.80;0.80;;;;;;;;;;10184979;28;20056;-68
2023/03/15 07:16:59;;;;;;;7.47;1.65;;;;;;;;;;10189820;28;20470;-69
2023/03/15 07:21:52;;;;;;;1.30;1.00;;;;;;;;;;10188855;28;20052;-68
2023/03/15 07:26:45;;;;;;;2.40;0.70;;;;;;;;;;10185859;28;20044;-69
2023/03/15 07:31:38;;;;;;;1.52;0.85;;;;;;;;;;10183974;28;20484;-69
2023/03/15 07:36:32;;;;;;;2.13;1.00;;;;;;;;;;10184346;28;20048;-68
2023/03/15 07:41:25;;;;;;;1.45;0.90;;;;;;;;;;10175616;28;20048;-69
2023/03/15 07:46:29;;;;;;;1.98;1.50;;;;;;;;;;10177752;28;20048;-69
2023/03/15 07:51:24;;;;;;;2.55;1.25;;;;;;;;;;10183993;28;20423;-68
2023/03/15 07:56:16;;;;;;;2.88;1.20;;;;;;;;;;10186813;28;20044;-68
2023/03/15 08:01:11;;;;;;;2.22;0.93;;;;;;;;;;10188197;28;20047;-68
2023/03/15 08:06:09;;;;;;;1.20;1.10;;;;;;;;;;10185130;28;20044;-69
2023/03/15 08:11:04;;;;;;;2.80;1.13;;;;;;;;;;10190464;28;20051;-70
2023/03/15 08:15:57;;;;;;;3.60;1.08;;;;;;;;;;10203353;28;20054;-70
2023/03/15 08:20:51;;;;;;;1.27;1.00;;;;;;;;;;10188056;28;20055;-70
2023/03/15 08:25:44;;;;;;;4.30;0.82;;;;;;;;;;10179129;28;20077;-70
2023/03/15 08:30:37;;;;;;;4.32;1.20;;;;;;;;;;10179312;28;20047;-70
2023/03/15 08:35:31;;;;;;;2.80;1.20;;;;;;;;;;10187537;28;20040;-71
2023/03/15 08:40:24;;;;;;;0.70;0.70;;;;;;;;;;10186594;28;20052;-71
2023/03/15 08:45:18;;;;;;;4.18;0.90;;;;;;;;;;10176881;28;20056;-71
2023/03/15 08:50:13;;;;;;;2.50;0.70;;;;;;;;;;10170147;28;20056;-71
2023/03/15 08:55:07;;;;;;;0.75;0.60;;;;;;;;;;10177161;28;20043;-69
2023/03/15 09:00:06;;;;;;;4.10;0.63;;;;;;;;;;10184626;28;20093;-69
2023/03/15 09:05:00;;;;;;;0.73;0.50;;;;;;;;;;10186579;28;20486;-69
2023/03/15 09:09:53;;;;;;;0.45;0.45;;;;;;;;;;10184642;28;20420;-69
2023/03/15 09:14:46;;;;;;;2.60;0.60;;;;;;;;;;10185993;28;20048;-71
2023/03/15 09:19:39;;;;;;;2.88;0.60;;;;;;;;;;10185679;28;20127;-69
2023/03/15 09:24:32;;;;;;;0.70;0.70;;;;;;;;;;10185921;28;20059;-69
2023/03/15 09:29:26;;;;;;;7.03;0.75;;;;;;;;;;10183903;28;20469;-69
2023/03/15 09:34:21;;;;;;;2.83;0.70;;;;;;;;;;10185802;28;20093;-69
2023/03/15 09:39:16;;;;;;;0.50;0.50;;;;;;;;;;10184673;28;20036;-69
2023/03/15 09:44:16;;;;;;;1.17;0.80;;;;;;;;;;10181473;28;20060;-69
2023/03/15 09:49:18;;;;;;;0.40;0.40;;;;;;;;;;10177316;28;20044;-69
2023/03/15 09:54:23;;;;;;;1.23;0.70;;;;;;;;;;10175429;28;20063;-69
2023/03/15 09:59:45;;;;;;;0.80;0.55;;;;;;;;;;10185293;28;20133;-69
2023/03/15 10:04:59;;;;;;;0.95;0.70;;;;;;;;;;10181776;28;20138;-69
2023/03/15 10:10:35;;;;;;;0.88;0.85;;;;;;;;;;10178328;28;20047;-69
2023/03/15 10:16:09;;;;;;;3.97;0.80;;;;;;;;;;10177989;28;20059;-69
2023/03/15 10:21:31;;;;;;;2.13;0.63;;;;;;;;;;10185471;28;20051;-69
2023/03/15 10:26:28;;;;;;;4.95;1.05;;;;;;;;;;10191358;28;20051;-71
2023/03/15 10:31:24;;;;;;;1.52;0.68;;;;;;;;;;10177877;28;20075;-69
2023/03/15 10:36:35;;;;;;;0.60;0.60;;;;;;;;;;10192204;28;20079;-69
2023/03/15 10:41:46;;;;;;;2.97;0.75;;;;;;;;;;10188857;28;20052;-69
2023/03/15 10:47:02;;;;;;;1.27;0.80;;;;;;;;;;10170730;28;20135;-68
2023/03/15 10:52:37;;;;;;;5.93;2.20;;;;;;;;;;10188973;28;20444;-69
2023/03/15 10:57:37;;;;;;;7.97;2.70;;;;;;;;;;10190416;28;20052;-69
2023/03/15 11:02:32;;;;;;;11.82;4.88;;;;;;;;;;10191208;28;20144;-68
2023/03/15 11:07:25;;;;;;;7.68;5.47;;;;;;;;;;10190186;28;20084;-68
2023/03/15 11:12:24;;;;;;;6.35;4.18;;;;;;;;;;10179404;28;20139;-68
2023/03/15 11:17:30;;;;;;;10.98;6.43;;;;;;;;;;10190191;28;20070;-68
2023/03/15 11:22:24;;;;;;;9.60;6.10;;;;;;;;;;10187938;28;20470;-68
2023/03/15 11:27:21;;;;;;;6.05;5.25;;;;;;;;;;10189261;28;20669;-68
2023/03/15 11:32:21;;;;;;;9.98;6.43;;;;;;;;;;10187272;28;20461;-67
2023/03/15 11:37:21;;;;;;;7.97;6.18;;;;;;;;;;10185061;28;20071;-67
2023/03/15 11:42:19;;;;;;;8.40;6.10;;;;;;;;;;10183110;28;20044;-67
2023/03/15 11:47:15;;;;;;;;;;;;;;;;;;10188990;28;20060;-67
2023/03/15 11:52:09;;;;;;;10.48;7.60;;;;;;;;;;10189194;28;19962;-67
2023/03/15 11:57:05;;;;;;;7.43;6.55;;;;;;;;;;10188863;28;20062;-67
2023/03/15 12:02:09;;;;;;;9.18;6.53;;;;;;;;;;10188256;28;20052;-69
2023/03/15 12:07:06;;;;;;;6.78;5.68;;;;;;;;;;10188507;28;20093;-67
2023/03/15 12:12:04;;;;;;;8.15;5.07;;;;;;;;;;10181216;28;20052;-67
2023/03/15 12:17:22;;;;;;;16.95;13.55;;;;;;;;;;10165086;28;20126;-68
2023/03/15 12:22:17;;;;;;;6.68;6.00;;;;;;;;;;10186467;28;20048;-68
2023/03/15 12:27:19;;;;;;;6.60;5.65;;;;;;;;;;10186378;28;20047;-68
2023/03/15 12:32:13;;;;;;;9.63;5.80;;;;;;;;;;10186566;28;20062;-68
2023/03/15 12:37:08;;;;;;;2.22;2.03;;;;;;;;;;10185590;28;20139;-68
2023/03/15 12:42:01;;;;;;;7.90;1.25;;;;;;;;;;10179452;28;20489;-68
2023/03/15 12:46:56;;;;;;;1.98;1.10;;;;;;;;;;10168755;28;20048;-68
2023/03/15 12:51:55;;;;;;;2.25;1.20;;;;;;;;;;10185885;28;20055;-67
2023/03/15 12:56:55;;;;;;;5.10;1.00;;;;;;;;;;10186205;28;20047;-67
2023/03/15 13:01:49;;;;;;;2.67;1.00;;;;;;;;;;10168184;28;20047;-67
2023/03/15 13:06:48;;;;;;;1.83;1.48;;;;;;;;;;10185823;28;20488;-67
2023/03/15 13:11:53;;;;;;;4.20;1.40;;;;;;;;;;10186767;28;20396;-68
2023/03/15 13:17:05;;;;;;;7.25;2.20;;;;;;;;;;10173933;28;20506;-66
2023/03/15 13:22:10;;;;;;;2.83;1.58;;;;;;;;;;10163791;28;20044;-66
2023/03/15 13:27:33;;;;;;;3.92;2.75;;;;;;;;;;10182345;28;20076;-66
2023/03/15 13:32:26;;;;;;;5.45;3.00;;;;;;;;;;10181008;28;20101;-66
2023/03/15 13:37:24;;;;;;;5.95;3.42;;;;;;;;;;10181629;28;20056;-67
2023/03/15 13:42:19;;;;;;;5.57;3.30;;;;;;;;;;10180360;28;20495;-68
2023/03/15 13:47:22;;;;;;;7.38;3.50;;;;;;;;;;10181848;28;20470;-69
2023/03/15 13:52:17;;;;;;;12.27;3.47;;;;;;;;;;10181762;28;20415;-66
2023/03/15 13:57:15;;;;;;;4.55;2.03;;;;;;;;;;10181842;28;20496;-69
2023/03/15 14:02:34;;;;;;;3.55;2.17;;;;;;;;;;10185475;28;20056;-68
2023/03/15 14:07:36;;;;;;;2.60;2.23;;;;;;;;;;10180715;28;20475;-68
2023/03/15 14:12:48;;;;;;;9.13;2.63;;;;;;;;;;10166678;28;20110;-69
2023/03/15 14:18:20;;;;;;;4.78;2.63;;;;;;;;;;10180950;28;20052;-68
2023/03/15 14:23:16;;;;;;;6.43;2.10;;;;;;;;;;10171486;28;20060;-68
2023/03/15 14:28:14;;;;;;;2.17;1.70;;;;;;;;;;10180324;28;20075;-68
2023/03/15 14:33:20;;;;;;;3.72;2.10;;;;;;;;;;10166985;28;20056;-68
2023/03/15 14:38:24;;;;;;;8.05;2.15;;;;;;;;;;10161245;28;20419;-68
2023/03/15 14:43:18;;;;;;;6.70;2.15;;;;;;;;;;10169428;28;20048;-68
2023/03/15 14:48:13;;;;;;;2.47;2.08;;;;;;;;;;10180618;28;20454;-68
2023/03/15 14:53:08;;;;;;;2.30;2.10;;;;;;;;;;10168897;28;20060;-68
2023/03/15 14:58:12;;;;;;;2.88;2.10;;;;;;;;;;10165677;28;20093;-68
2023/03/15 15:03:30;;;;;;;4.80;2.10;;;;;;;;;;10179708;28;20453;-68
2023/03/15 15:08:23;;;;;;;2.28;2.05;;;;;;;;;;10185334;28;20052;-67
2023/03/15 15:13:19;;;;;;;7.38;2.55;;;;;;;;;;10173801;28;20055;-68
2023/03/15 15:18:12;;;;;;;8.65;3.25;;;;;;;;;;10186250;28;20483;-68
2023/03/15 15:23:07;;;;;;;5.80;3.53;;;;;;;;;;10187122;28;20491;-69
2023/03/15 15:28:00;;;;;;;3.90;2.65;;;;;;;;;;10186494;28;20036;-68
2023/03/15 15:32:55;;;;;;;3.25;3.03;;;;;;;;;;10186710;28;20052;-68
2023/03/15 15:37:50;;;;;;;3.83;2.85;;;;;;;;;;10185398;28;20058;-68
2023/03/15 15:42:46;;;;;;;4.75;3.50;;;;;;;;;;10181334;28;20060;-67
2023/03/15 15:47:39;;;;;;;3.65;2.60;;;;;;;;;;10183043;28;20052;-65
2023/03/15 15:52:33;;;;;;;8.30;2.70;;;;;;;;;;10186370;28;20495;-67
2023/03/15 15:57:27;;;;;;;3.50;2.10;;;;;;;;;;10181204;28;20095;-66
2023/03/15 16:02:21;;;;;;;3.95;2.60;;;;;;;;;;10184706;28;20056;-66
2023/03/15 16:07:14;;;;;;;5.53;3.75;;;;;;;;;;10166276;28;20488;-66
2023/03/15 16:12:16;;;;;;;8.55;4.45;;;;;;;;;;10187256;28;20118;-66
2023/03/15 16:17:22;;;;;;;5.45;2.92;;;;;;;;;;10183541;28;20516;-66
2023/03/15 16:22:18;;;;;;;13.13;3.95;;;;;;;;;;10181922;28;20052;-66
2023/03/15 16:27:15;;;;;;;6.35;3.53;;;;;;;;;;10182637;28;20052;-65
2023/03/15 16:32:21;;;;;;;7.57;3.35;;;;;;;;;;10183907;28;20044;-66
2023/03/15 16:37:33;;;;;;;3.92;3.53;;;;;;;;;;10182749;28;20052;-67
2023/03/15 16:42:27;;;;;;;7.43;3.05;;;;;;;;;;10181896;28;20448;-66
2023/03/15 16:47:21;;;;;;;5.75;4.00;;;;;;;;;;10176289;28;20047;-67
2023/03/15 16:52:15;;;;;;;7.35;4.32;;;;;;;;;;10183459;28;20069;-64
2023/03/15 16:57:15;;;;;;;3.95;3.13;;;;;;;;;;10178202;28;20096;-64
2023/03/15 17:02:17;;;;;;;8.90;3.28;;;;;;;;;;10160094;28;20056;-64
2023/03/15 17:07:13;;;;;;;14.25;3.00;;;;;;;;;;10177498;28;20041;-64
2023/03/15 17:12:13;;;;;;;6.68;2.58;;;;;;;;;;10178159;28;20815;-64
2023/03/15 17:17:08;;;;;;;8.77;3.33;;;;;;;;;;10176630;28;20465;-65
2023/03/15 17:22:03;;;;;;;10.05;4.20;;;;;;;;;;10162153;28;20044;-65
2023/03/15 17:26:56;;;;;;;10.85;6.30;;;;;;;;;;10159205;28;20106;-64
2023/03/15 17:31:49;;;;;;;13.35;7.05;;;;;;;;;;10173058;28;20094;-66
2023/03/15 17:36:43;;;;;;;18.15;11.40;;;;;;;;;;10173391;28;20139;-64
2023/03/15 17:41:38;;;;;;;36.53;21.13;;;;;;;;;;10166821;28;20110;-65
2023/03/15 17:46:31;;;;;;;15.18;9.73;;;;;;;;;;10169634;28;20036;-65
2023/03/15 17:51:30;;;;;;;11.10;7.38;;;;;;;;;;10167789;28;20101;-65
2023/03/15 17:56:23;;;;;;;19.07;14.17;;;;;;;;;;10148630;28;20054;-65
2023/03/15 18:01:19;;;;;;;21.35;16.40;;;;;;;;;;10169995;28;20052;-66
2023/03/15 18:06:13;;;;;;;10.48;6.63;;;;;;;;;;10172933;28;20408;-66
2023/03/15 18:11:30;;;;;;;10.40;6.68;;;;;;;;;;10173854;28;20056;-66
2023/03/15 18:16:24;;;;;;;15.40;6.15;;;;;;;;;;10153771;28;20159;-66
2023/03/15 18:21:23;;;;;;;7.97;5.55;;;;;;;;;;10181497;28;20474;-66
2023/03/15 18:26:17;;;;;;;6.53;5.20;;;;;;;;;;10173338;28;20058;-66
2023/03/15 18:31:19;;;;;;;21.27;7.40;;;;;;;;;;10172806;28;20044;-66
2023/03/15 18:36:13;;;;;;;12.05;5.20;;;;;;;;;;10189447;28;20577;-67
2023/03/15 18:41:18;;;;;;;6.47;5.30;;;;;;;;;;10188408;28;20052;-66
2023/03/15 18:46:12;;;;;;;6.57;5.57;;;;;;;;;;10189552;28;20060;-66
2023/03/15 18:51:08;;;;;;;19.85;13.38;;;;;;;;;;10188409;28;20462;-67
2023/03/15 18:56:01;;;;;;;12.55;9.30;;;;;;;;;;10187773;28;20052;-66
2023/03/15 19:00:55;;;;;;;14.02;10.77;;;;;;;;;;10187997;28;20488;-66
2023/03/15 19:05:49;;;;;;;18.65;12.23;;;;;;;;;;10187780;28;20068;-66
2023/03/15 19:10:45;;;;;;;13.75;10.73;;;;;;;;;;10187144;28;20052;-65
2023/03/15 19:15:39;;;;;;;14.93;7.75;;;;;;;;;;10187604;28;20052;-67
2023/03/15 19:20:35;;;;;;;12.07;8.02;;;;;;;;;;10187244;28;20405;-67
2023/03/15 19:25:28;;;;;;;12.82;7.88;;;;;;;;;;10187451;28;20123;-67
2023/03/15 19:30:22;;;;;;;25.42;13.35;;;;;;;;;;10187210;28;20040;-69
2023/03/15 19:35:18;;;;;;;16.95;10.13;;;;;;;;;;10186197;28;20146;-69
2023/03/15 19:40:11;;;;;;;7.40;6.18;;;;;;;;;;10185910;28;20131;-68
2023/03/15 19:45:07;;;;;;;10.55;7.13;;;;;;;;;;10183608;28;20056;-68
2023/03/15 19:50:01;;;;;;;10.88;7.80;;;;;;;;;;10177353;28;20145;-68
2023/03/15 19:54:55;;;;;;;10.93;7.88;;;;;;;;;;10177246;28;20480;-67
2023/03/15 19:59:49;;;;;;;12.15;9.05;;;;;;;;;;10173661;28;20117;-68
2023/03/15 20:04:43;;;;;;;12.25;6.40;;;;;;;;;;10171488;28;20173;-68
2023/03/15 20:09:37;;;;;;;9.30;5.90;;;;;;;;;;10161318;28;20057;-68
2023/03/15 20:14:30;;;;;;;10.63;5.63;;;;;;;;;;10170134;28;20409;-74
2023/03/15 20:19:23;;;;;;;15.02;6.93;;;;;;;;;;10167647;28;20101;-68
2023/03/15 20:24:17;;;;;;;13.05;7.60;;;;;;;;;;10175037;28;20131;-68
2023/03/15 20:29:11;;;;;;;12.40;7.63;;;;;;;;;;10178519;28;20044;-67
2023/03/15 20:34:04;;;;;;;10.23;7.53;;;;;;;;;;10175485;28;20464;-67
2023/03/15 20:38:59;;;;;;;8.70;7.05;;;;;;;;;;10176390;28;20051;-66
2023/03/15 20:43:53;;;;;;;6.85;6.15;;;;;;;;;;10169236;28;20056;-65
2023/03/15 20:48:46;;;;;;;13.10;8.27;;;;;;;;;;10168913;28;20635;-66
2023/03/15 20:53:39;;;;;;;9.20;8.13;;;;;;;;;;10164872;28;20063;-67
2023/03/15 20:58:33;;;;;;;8.93;7.13;;;;;;;;;;10168123;28;20598;-67
2023/03/15 21:03:30;;;;;;;11.40;7.38;;;;;;;;;;10167072;28;20060;-68
2023/03/15 21:08:22;;;;;;;12.00;9.30;;;;;;;;;;10174248;28;20113;-67
2023/03/15 21:13:16;;;;;;;7.93;7.05;;;;;;;;;;10177125;28;20789;-66
2023/03/15 21:18:11;;;;;;;7.70;6.65;;;;;;;;;;10173738;28;20138;-67
2023/03/15 21:23:04;;;;;;;11.25;7.95;;;;;;;;;;10167084;28;20043;-69
2023/03/15 21:27:58;;;;;;;7.65;6.72;;;;;;;;;;10174452;28;20048;-66
2023/03/15 21:32:51;;;;;;;8.57;7.10;;;;;;;;;;10172857;28;20040;-66
2023/03/15 21:37:44;;;;;;;7.05;6.32;;;;;;;;;;10178837;28;20145;-66
2023/03/15 21:42:39;;;;;;;6.72;5.60;;;;;;;;;;10182886;28;20060;-66
2023/03/15 21:47:33;;;;;;;6.03;5.43;;;;;;;;;;10184159;28;20090;-67
2023/03/15 21:52:28;;;;;;;7.80;5.25;;;;;;;;;;10184303;28;20454;-66
2023/03/15 21:57:21;;;;;;;7.32;4.65;;;;;;;;;;10181190;28;20071;-67
2023/03/15 22:02:15;;;;;;;6.50;4.97;;;;;;;;;;10180778;28;20040;-66
2023/03/15 22:07:08;;;;;;;6.22;5.53;;;;;;;;;;10185576;28;20400;-67
2023/03/15 22:12:01;;;;;;;7.80;6.15;;;;;;;;;;10188172;28;20052;-66
2023/03/15 22:16:55;;;;;;;5.75;5.10;;;;;;;;;;10186064;28;20044;-67
2023/03/15 22:21:48;;;;;;;7.22;4.95;;;;;;;;;;10183190;28;20106;-68
2023/03/15 22:26:42;;;;;;;5.28;4.47;;;;;;;;;;10187973;28;20048;-67
2023/03/15 22:31:37;;;;;;;5.78;5.15;;;;;;;;;;10188333;28;20519;-67
2023/03/15 22:36:32;;;;;;;7.82;5.18;;;;;;;;;;10185965;28;20051;-68
2023/03/15 22:41:25;;;;;;;7.80;6.15;;;;;;;;;;10176898;28;20048;-67
2023/03/15 22:46:18;;;;;;;9.38;5.25;;;;;;;;;;10173882;28;20087;-67
2023/03/15 22:51:14;;;;;;;6.45;4.70;;;;;;;;;;10181022;28;20044;-67
2023/03/15 22:56:07;;;;;;;5.82;4.80;;;;;;;;;;10183605;28;20514;-69
2023/03/15 23:01:01;;;;;;;7.03;5.00;;;;;;;;;;10182552;28;20067;-69
2023/03/15 23:05:55;;;;;;;6.55;5.38;;;;;;;;;;10182842;28;20052;-69
2023/03/15 23:10:48;;;;;;;6.13;5.03;;;;;;;;;;10171463;28;20044;-69
2023/03/15 23:15:42;;;;;;;7.15;4.53;;;;;;;;;;10182216;28;20113;-69
2023/03/15 23:20:36;;;;;;;6.25;4.93;;;;;;;;;;10172922;28;20052;-69
2023/03/15 23:25:34;;;;;;;4.65;4.25;;;;;;;;;;10181042;28;20044;-69
2023/03/15 23:30:31;;;;;;;7.10;4.78;;;;;;;;;;10182950;28;20067;-69
2023/03/15 23:35:28;;;;;;;5.30;4.80;;;;;;;;;;10185080;28;20083;-69
2023/03/15 23:40:23;;;;;;;4.70;4.30;;;;;;;;;;10184765;28;20052;-69
2023/03/15 23:45:18;;;;;;;5.63;4.13;;;;;;;;;;10179915;28;20493;-69
2023/03/15 23:50:12;;;;;;;5.10;4.20;;;;;;;;;;10183805;28;20405;-68
2023/03/15 23:55:07;;;;;;;6.30;5.40;;;;;;;;;;10189473;28;20420;-69
